createdAt,value
2017-09-29T00:00:54.919Z,2.3
2017-09-29T00:01:57.375Z,2.3
2017-09-29T00:02:59.758Z,2.3
2017-09-29T00:04:02.172Z,2.3
2017-09-29T00:05:04.563Z,2.3
2017-09-29T00:06:06.943Z,2.2
2017-09-29T00:07:09.374Z,2.3
2017-09-29T00:08:11.760Z,2.3
2017-09-29T00:09:14.600Z,2.3
2017-09-29T00:10:17.108Z,2.3
2017-09-29T00:11:19.490Z,2.3
2017-09-29T00:12:21.941Z,2.3
2017-09-29T00:13:24.314Z,2.2
2017-09-29T00:14:26.740Z,2.3
2017-09-29T00:15:29.200Z,2.3
2017-09-29T00:16:31.582Z,2.1
2017-09-29T00:17:34.010Z,2.3
2017-09-29T00:18:36.394Z,2.3
2017-09-29T00:19:38.771Z,2.3
2017-09-29T00:20:41.210Z,2.4
2017-09-29T00:21:43.584Z,2.3
2017-09-29T00:22:46.353Z,2.3
2017-09-29T00:23:48.729Z,2.4
2017-09-29T00:24:51.111Z,2.4
2017-09-29T00:25:53.565Z,2.3
2017-09-29T00:26:55.965Z,2.4
2017-09-29T00:27:58.400Z,2.3
2017-09-29T00:29:00.780Z,2.3
2017-09-29T00:30:03.159Z,2.3
2017-09-29T00:31:05.615Z,2.3
2017-09-29T00:32:07.995Z,2.3
2017-09-29T00:33:10.423Z,2.4
2017-09-29T00:34:13.197Z,2.2
2017-09-29T00:35:16.024Z,2.3
2017-09-29T00:36:18.406Z,2.3
2017-09-29T00:37:20.869Z,2.3
2017-09-29T00:38:23.242Z,2.3
2017-09-29T00:39:25.713Z,2.3
2017-09-29T00:40:28.107Z,2.2
2017-09-29T00:41:30.652Z,2.3
2017-09-29T00:42:33.033Z,2.3
2017-09-29T00:43:35.482Z,2.4
2017-09-29T00:44:37.868Z,2.3
2017-09-29T00:45:40.463Z,2.3
2017-09-29T00:46:42.850Z,2.3
2017-09-29T00:47:45.657Z,2.3
2017-09-29T00:48:48.039Z,2.4
2017-09-29T00:49:50.487Z,2.3
2017-09-29T00:50:52.865Z,2.3
2017-09-29T00:51:55.305Z,2.3
2017-09-29T00:52:57.715Z,2.4
2017-09-29T00:54:00.097Z,2.3
2017-09-29T00:55:02.473Z,2.3
2017-09-29T00:56:04.859Z,2.3
2017-09-29T00:57:07.243Z,2.3
2017-09-29T00:58:09.617Z,2.3
2017-09-29T00:59:12.123Z,2.4
2017-09-29T01:00:14.503Z,2.2
2017-09-29T01:01:16.964Z,2.3
2017-09-29T01:02:19.349Z,2.3
2017-09-29T01:03:21.911Z,2.3
2017-09-29T01:04:24.288Z,2.3
2017-09-29T01:05:27.083Z,2.3
2017-09-29T01:06:29.462Z,2.3
2017-09-29T01:07:32.497Z,2.3
2017-09-29T01:08:34.876Z,2.3
2017-09-29T01:09:37.402Z,2.4
2017-09-29T01:10:39.790Z,2.3
2017-09-29T01:11:42.581Z,2.3
2017-09-29T01:12:44.967Z,2.3
2017-09-29T01:13:47.409Z,2.3
2017-09-29T01:14:49.794Z,2.4
2017-09-29T01:15:52.252Z,2.4
2017-09-29T01:16:54.632Z,2.3
2017-09-29T01:17:57.347Z,2.3
2017-09-29T01:18:59.738Z,2.3
2017-09-29T01:20:02.119Z,2.3
2017-09-29T01:21:04.489Z,2.3
2017-09-29T01:22:06.875Z,2.4
2017-09-29T01:23:09.254Z,2.4
2017-09-29T01:24:11.646Z,2.4
2017-09-29T01:25:14.049Z,2.4
2017-09-29T01:26:16.438Z,2.4
2017-09-29T01:27:18.820Z,2.2
2017-09-29T01:28:21.244Z,2.2
2017-09-29T01:29:23.633Z,2.3
2017-09-29T01:30:26.003Z,2.3
2017-09-29T01:31:28.408Z,2.2
2017-09-29T01:32:30.784Z,2.3
2017-09-29T01:33:33.164Z,2.3
2017-09-29T01:34:35.556Z,2.3
2017-09-29T01:35:37.933Z,2.3
2017-09-29T01:36:40.315Z,2.3
2017-09-29T01:37:42.715Z,2.3
2017-09-29T01:38:45.098Z,2.3
2017-09-29T01:39:47.484Z,2.4
2017-09-29T01:40:49.909Z,2.3
2017-09-29T01:41:52.291Z,2.2
2017-09-29T01:42:54.674Z,2.3
2017-09-29T01:43:57.050Z,2.3
2017-09-29T01:44:59.466Z,2.3
2017-09-29T01:46:01.900Z,2.3
2017-09-29T01:47:04.298Z,2.3
2017-09-29T01:48:06.712Z,2.3
2017-09-29T01:49:09.098Z,2.3
2017-09-29T01:50:11.486Z,2.3
2017-09-29T01:51:13.878Z,2.3
2017-09-29T01:52:16.251Z,2.3
2017-09-29T01:53:18.987Z,2.3
2017-09-29T01:54:21.370Z,2.3
2017-09-29T01:55:23.744Z,2.3
2017-09-29T01:56:26.121Z,2.3
2017-09-29T01:57:28.504Z,2.4
2017-09-29T01:58:30.884Z,2.3
2017-09-29T01:59:33.269Z,2.3
2017-09-29T02:00:35.687Z,2.4
2017-09-29T02:01:38.067Z,2.3
2017-09-29T02:02:40.469Z,2.3
2017-09-29T02:03:42.905Z,2.3
2017-09-29T02:04:45.338Z,2.3
2017-09-29T02:05:47.769Z,2.3
2017-09-29T02:06:50.231Z,2.3
2017-09-29T02:07:52.714Z,2.3
2017-09-29T02:08:55.137Z,2.3
2017-09-29T02:09:57.568Z,2.4
2017-09-29T02:10:59.965Z,2.3
2017-09-29T02:12:02.333Z,2.3
2017-09-29T02:13:04.716Z,2.3
2017-09-29T02:14:07.093Z,2.3
2017-09-29T02:15:09.474Z,2.4
2017-09-29T02:16:12.204Z,2.3
2017-09-29T02:17:14.595Z,2.3
2017-09-29T02:18:17.326Z,2.3
2017-09-29T02:19:19.713Z,2.3
2017-09-29T02:20:22.450Z,2.3
2017-09-29T02:21:24.826Z,2.4
2017-09-29T02:22:27.203Z,2.3
2017-09-29T02:23:29.584Z,2.3
2017-09-29T02:24:31.956Z,2.4
2017-09-29T02:25:34.352Z,2.3
2017-09-29T02:26:36.735Z,2.4
2017-09-29T02:27:39.105Z,2.3
2017-09-29T02:28:41.487Z,2.4
2017-09-29T02:29:43.873Z,2.4
2017-09-29T02:30:46.247Z,2.4
2017-09-29T02:31:48.971Z,2.3
2017-09-29T02:32:51.686Z,2.3
2017-09-29T02:33:54.092Z,2.3
2017-09-29T02:34:56.519Z,2.3
2017-09-29T02:35:58.911Z,2.3
2017-09-29T02:37:01.308Z,2.3
2017-09-29T02:38:04.043Z,2.4
2017-09-29T02:39:06.423Z,2.3
2017-09-29T02:40:08.801Z,2.3
2017-09-29T02:41:11.177Z,2.3
2017-09-29T02:42:13.561Z,2.3
2017-09-29T02:43:15.950Z,2.3
2017-09-29T02:44:18.322Z,2.3
2017-09-29T02:45:20.722Z,2.3
2017-09-29T02:46:23.457Z,2.3
2017-09-29T02:47:25.848Z,2.3
2017-09-29T02:48:28.233Z,2.3
2017-09-29T02:49:30.633Z,2.4
2017-09-29T02:50:33.697Z,2.3
2017-09-29T02:51:36.111Z,2.3
2017-09-29T02:52:38.500Z,2.4
2017-09-29T02:53:40.884Z,2.3
2017-09-29T02:54:43.263Z,2.3
2017-09-29T02:55:45.663Z,2.3
2017-09-29T02:56:48.052Z,2.4
2017-09-29T02:57:50.786Z,2.4
2017-09-29T02:58:53.180Z,2.3
2017-09-29T02:59:55.558Z,2.4
2017-09-29T03:00:57.940Z,2.3
2017-09-29T03:02:00.330Z,2.3
2017-09-29T03:03:02.717Z,2.4
2017-09-29T03:04:05.100Z,2.4
2017-09-29T03:05:07.829Z,2.3
2017-09-29T03:06:10.227Z,2.3
2017-09-29T03:07:12.608Z,2.4
2017-09-29T03:08:15.016Z,2.4
2017-09-29T03:09:17.405Z,2.4
2017-09-29T03:10:19.817Z,2.3
2017-09-29T03:11:22.553Z,2.3
2017-09-29T03:12:24.928Z,2.4
2017-09-29T03:13:27.316Z,2.3
2017-09-29T03:14:29.700Z,2.3
2017-09-29T03:15:32.083Z,2.3
2017-09-29T03:16:34.493Z,2.4
2017-09-29T03:17:36.881Z,2.3
2017-09-29T03:18:39.289Z,2.4
2017-09-29T03:19:41.678Z,2.4
2017-09-29T03:20:44.055Z,2.4
2017-09-29T03:21:46.441Z,2.3
2017-09-29T03:22:48.820Z,2.3
2017-09-29T03:23:51.204Z,2.3
2017-09-29T03:24:53.588Z,2.4
2017-09-29T03:25:55.961Z,2.4
2017-09-29T03:26:58.350Z,2.3
2017-09-29T03:28:00.733Z,2.4
2017-09-29T03:29:03.150Z,2.3
2017-09-29T03:30:05.563Z,2.3
2017-09-29T03:31:07.960Z,2.3
2017-09-29T03:32:10.353Z,2.3
2017-09-29T03:33:12.744Z,2.3
2017-09-29T03:34:15.164Z,2.3
2017-09-29T03:35:17.571Z,2.3
2017-09-29T03:36:19.971Z,2.4
2017-09-29T03:38:13.734Z,2.4
2017-09-29T03:39:16.177Z,2.3
2017-09-29T03:40:18.600Z,2.2
2017-09-29T03:41:21.037Z,2.3
2017-09-29T03:42:23.485Z,2.3
2017-09-29T03:43:25.931Z,2.3
2017-09-29T03:44:28.377Z,2.3
2017-09-29T03:45:30.812Z,2.3
2017-09-29T03:46:33.250Z,2.3
2017-09-29T03:47:35.690Z,2.2
2017-09-29T03:48:38.129Z,2.4
2017-09-29T03:49:40.555Z,2.3
2017-09-29T03:50:42.995Z,2.4
2017-09-29T03:51:45.435Z,2.3
2017-09-29T03:52:47.863Z,2.4
2017-09-29T03:53:50.294Z,2.4
2017-09-29T03:54:52.730Z,2.3
2017-09-29T03:55:55.164Z,2.3
2017-09-29T03:56:57.599Z,2.4
2017-09-29T03:58:00.037Z,2.3
2017-09-29T03:59:02.468Z,2.3
2017-09-29T04:00:04.902Z,2.3
2017-09-29T04:01:07.338Z,2.3
2017-09-29T04:02:09.773Z,2.3
2017-09-29T04:03:12.213Z,2.3
2017-09-29T04:04:14.643Z,2.4
2017-09-29T04:05:17.077Z,2.2
2017-09-29T04:06:19.511Z,2.3
2017-09-29T04:07:21.938Z,2.4
2017-09-29T04:08:24.375Z,2.3
2017-09-29T04:09:26.804Z,2.4
2017-09-29T04:10:29.241Z,2.2
2017-09-29T04:11:32.003Z,2.3
2017-09-29T04:12:34.431Z,2.3
2017-09-29T04:13:36.871Z,2.3
2017-09-29T04:14:39.306Z,2.2
2017-09-29T04:15:41.734Z,2.3
2017-09-29T04:16:44.174Z,2.3
2017-09-29T04:17:46.609Z,2.3
2017-09-29T04:18:49.048Z,2.3
2017-09-29T04:19:51.481Z,2.4
2017-09-29T04:20:54.256Z,2.3
2017-09-29T04:21:56.686Z,2.3
2017-09-29T04:22:59.131Z,2.3
2017-09-29T04:24:01.548Z,2.3
2017-09-29T04:25:03.984Z,2.2
2017-09-29T04:26:06.420Z,2.3
2017-09-29T04:27:08.841Z,2.3
2017-09-29T04:28:11.274Z,2.3
2017-09-29T04:29:13.710Z,2.2
2017-09-29T04:30:16.147Z,2.3
2017-09-29T04:31:18.578Z,2.3
2017-09-29T04:32:21.020Z,2.3
2017-09-29T04:33:23.447Z,2.3
2017-09-29T04:34:25.883Z,2.2
2017-09-29T04:35:28.310Z,2.3
2017-09-29T04:36:30.749Z,2.3
2017-09-29T04:37:33.185Z,2.2
2017-09-29T04:38:35.965Z,2.3
2017-09-29T04:39:38.386Z,2.3
2017-09-29T04:40:40.823Z,2.2
2017-09-29T04:41:43.255Z,2.2
2017-09-29T04:42:45.710Z,2.2
2017-09-29T04:43:48.488Z,2.2
2017-09-29T04:44:50.939Z,2.3
2017-09-29T04:45:53.368Z,2.3
2017-09-29T04:46:55.814Z,2.2
2017-09-29T04:47:58.242Z,2.3
2017-09-29T04:49:00.670Z,2.3
2017-09-29T04:50:03.104Z,2.3
2017-09-29T04:51:05.540Z,2.3
2017-09-29T04:52:07.975Z,2.3
2017-09-29T04:53:10.407Z,2.3
2017-09-29T04:54:12.845Z,2.3
2017-09-29T04:55:15.283Z,2.3
2017-09-29T04:56:18.053Z,2.3
2017-09-29T04:57:20.493Z,2.3
2017-09-29T04:58:22.915Z,2.3
2017-09-29T04:59:25.355Z,2.3
2017-09-29T05:00:27.795Z,2.3
2017-09-29T05:01:30.565Z,2.3
2017-09-29T05:02:33.049Z,2.3
2017-09-29T05:03:35.479Z,2.3
2017-09-29T05:04:37.905Z,2.2
2017-09-29T05:05:40.345Z,2.3
2017-09-29T05:06:42.776Z,2.2
2017-09-29T05:07:45.202Z,2.3
2017-09-29T05:08:47.642Z,2.3
2017-09-29T05:09:50.076Z,2.3
2017-09-29T05:10:52.515Z,2.3
2017-09-29T05:11:54.954Z,2.3
2017-09-29T05:12:57.380Z,2.3
2017-09-29T05:13:59.820Z,2.3
2017-09-29T05:15:02.253Z,2.3
2017-09-29T05:16:04.680Z,2.3
2017-09-29T05:17:07.114Z,2.2
2017-09-29T05:18:09.542Z,2.2
2017-09-29T05:19:11.972Z,2.3
2017-09-29T05:20:14.405Z,2.2
2017-09-29T05:21:16.833Z,2.2
2017-09-29T05:22:19.274Z,2.2
2017-09-29T05:23:21.714Z,2.2
2017-09-29T05:24:24.139Z,2.3
2017-09-29T05:25:26.579Z,2.2
2017-09-29T05:26:29.020Z,2.3
2017-09-29T05:27:31.453Z,2.2
2017-09-29T05:28:33.894Z,2.3
2017-09-29T05:29:36.331Z,2.3
2017-09-29T05:30:38.760Z,2.2
2017-09-29T05:31:41.207Z,2.2
2017-09-29T05:32:43.634Z,2.2
2017-09-29T05:33:46.404Z,2.2
2017-09-29T05:34:48.834Z,2.3
2017-09-29T05:35:51.268Z,2.3
2017-09-29T05:36:53.701Z,2.2
2017-09-29T05:37:56.128Z,2.2
2017-09-29T05:38:58.571Z,2.3
2017-09-29T05:40:01.002Z,2.2
2017-09-29T05:41:03.455Z,2.3
2017-09-29T05:42:05.891Z,2.3
2017-09-29T05:43:08.322Z,2.2
2017-09-29T05:44:10.750Z,2.2
2017-09-29T05:45:13.533Z,2.2
2017-09-29T05:46:15.956Z,2.3
2017-09-29T05:47:18.398Z,2.2
2017-09-29T05:48:21.184Z,2.2
2017-09-29T05:49:23.962Z,2.3
2017-09-29T05:50:26.425Z,2.2
2017-09-29T05:51:28.837Z,2.3
2017-09-29T05:52:31.269Z,2.2
2017-09-29T05:53:33.708Z,2.2
2017-09-29T05:54:36.167Z,2.2
2017-09-29T05:55:38.594Z,2.2
2017-09-29T05:56:41.035Z,2.2
2017-09-29T05:57:43.469Z,2.2
2017-09-29T05:58:45.899Z,2.3
2017-09-29T05:59:48.327Z,2.3
2017-09-29T06:00:50.763Z,2.3
2017-09-29T06:01:53.546Z,2.2
2017-09-29T06:02:55.981Z,2.2
2017-09-29T06:03:58.418Z,2.3
2017-09-29T06:05:00.849Z,2.1
2017-09-29T06:06:03.638Z,2.3
2017-09-29T06:07:06.081Z,2.2
2017-09-29T06:08:08.514Z,2.2
2017-09-29T06:09:10.953Z,2.1
2017-09-29T06:10:13.387Z,2.3
2017-09-29T06:11:15.830Z,2.2
2017-09-29T06:12:18.591Z,2.1
2017-09-29T06:13:21.030Z,2.3
2017-09-29T06:14:23.458Z,2.1
2017-09-29T06:15:25.895Z,2.4
2017-09-29T06:16:28.330Z,2.3
2017-09-29T06:17:30.787Z,2.2
2017-09-29T06:18:33.213Z,2.3
2017-09-29T06:19:35.666Z,2.2
2017-09-29T06:20:38.108Z,2.2
2017-09-29T06:21:40.541Z,2.1
2017-09-29T06:22:42.989Z,2.3
2017-09-29T06:23:45.430Z,2.1
2017-09-29T06:24:47.867Z,2.3
2017-09-29T06:25:50.303Z,2.3
2017-09-29T06:26:52.733Z,2.3
2017-09-29T06:27:55.158Z,2.3
2017-09-29T06:28:57.600Z,2.3
2017-09-29T06:30:00.023Z,2.3
2017-09-29T06:31:02.828Z,2.3
2017-09-29T06:32:05.259Z,2.2
2017-09-29T06:33:08.059Z,2.3
2017-09-29T06:34:10.499Z,2.3
2017-09-29T06:35:13.303Z,2.3
2017-09-29T06:36:15.738Z,2.4
2017-09-29T06:37:18.187Z,2.3
2017-09-29T06:38:20.988Z,2.2
2017-09-29T06:39:23.416Z,2.3
2017-09-29T06:40:25.853Z,2.3
2017-09-29T06:41:28.648Z,2.3
2017-09-29T06:42:31.437Z,2.3
2017-09-29T06:43:34.213Z,2.2
2017-09-29T06:44:36.663Z,2.2
2017-09-29T06:45:39.102Z,2.3
2017-09-29T06:46:41.539Z,2.3
2017-09-29T06:47:43.977Z,2.3
2017-09-29T06:48:46.411Z,2.3
2017-09-29T06:49:48.839Z,2.3
2017-09-29T06:50:51.281Z,2.3
2017-09-29T06:51:53.713Z,2.3
2017-09-29T06:52:56.147Z,2.3
2017-09-29T06:53:58.590Z,2.3
2017-09-29T06:55:01.014Z,2.3
2017-09-29T06:56:03.441Z,2.4
2017-09-29T06:57:05.882Z,2.2
2017-09-29T06:58:08.312Z,2.3
2017-09-29T06:59:11.093Z,2.4
2017-09-29T07:00:13.527Z,2.4
2017-09-29T07:01:15.958Z,2.3
2017-09-29T07:02:18.402Z,2.3
2017-09-29T07:03:20.841Z,2.3
2017-09-29T07:04:23.268Z,2.2
2017-09-29T07:05:25.708Z,2.3
2017-09-29T07:06:28.142Z,2.4
2017-09-29T07:07:30.574Z,2.4
2017-09-29T07:08:33.004Z,2.3
2017-09-29T07:09:35.440Z,2.3
2017-09-29T07:10:37.880Z,2.4
2017-09-29T07:11:40.303Z,2.4
2017-09-29T07:12:42.742Z,2.4
2017-09-29T07:13:45.185Z,2.3
2017-09-29T07:14:47.612Z,2.3
2017-09-29T07:15:50.054Z,2.3
2017-09-29T07:16:52.492Z,2.4
2017-09-29T07:17:54.920Z,2.4
2017-09-29T07:18:57.703Z,2.4
2017-09-29T07:20:00.138Z,2.4
2017-09-29T07:21:02.568Z,2.4
2017-09-29T07:22:05.010Z,2.3
2017-09-29T07:23:07.787Z,2.4
2017-09-29T07:24:10.218Z,2.4
2017-09-29T07:25:12.652Z,2.5
2017-09-29T07:26:15.073Z,2.4
2017-09-29T07:27:17.506Z,2.4
2017-09-29T07:28:19.944Z,2.5
2017-09-29T07:29:22.380Z,2.5
2017-09-29T07:30:24.816Z,2.4
2017-09-29T07:31:27.261Z,2.4
2017-09-29T07:32:30.034Z,2.5
2017-09-29T07:33:32.482Z,2.5
2017-09-29T07:34:34.920Z,2.5
2017-09-29T07:35:37.345Z,2.4
2017-09-29T07:36:39.788Z,2.5
2017-09-29T07:37:42.223Z,2.5
2017-09-29T07:38:44.658Z,2.5
2017-09-29T07:39:47.094Z,2.5
2017-09-29T07:40:49.530Z,2.5
2017-09-29T07:41:51.973Z,2.6
2017-09-29T07:42:54.404Z,2.5
2017-09-29T07:43:56.840Z,2.5
2017-09-29T07:44:59.617Z,2.4
2017-09-29T07:46:02.049Z,2.5
2017-09-29T07:47:04.490Z,2.5
2017-09-29T07:48:06.920Z,2.5
2017-09-29T07:49:09.357Z,2.5
2017-09-29T07:50:11.796Z,2.5
2017-09-29T07:51:14.592Z,2.6
2017-09-29T07:52:17.022Z,2.5
2017-09-29T07:53:19.457Z,2.5
2017-09-29T07:54:21.895Z,2.5
2017-09-29T07:55:24.332Z,2.6
2017-09-29T07:56:26.774Z,2.6
2017-09-29T07:57:29.201Z,2.6
2017-09-29T07:58:31.644Z,2.6
2017-09-29T07:59:34.078Z,2.6
2017-09-29T08:00:36.515Z,2.6
2017-09-29T08:01:39.296Z,2.6
2017-09-29T08:02:41.728Z,2.6
2017-09-29T08:03:44.167Z,2.6
2017-09-29T08:04:46.632Z,2.6
2017-09-29T08:05:49.065Z,2.6
2017-09-29T08:06:51.504Z,2.7
2017-09-29T08:07:53.938Z,2.6
2017-09-29T08:08:56.385Z,2.6
2017-09-29T08:09:58.820Z,2.6
2017-09-29T08:11:01.244Z,2.6
2017-09-29T08:12:03.689Z,2.7
2017-09-29T08:13:06.123Z,2.6
2017-09-29T08:14:08.559Z,2.7
2017-09-29T08:15:10.993Z,2.6
2017-09-29T08:16:13.426Z,2.7
2017-09-29T08:17:15.873Z,2.6
2017-09-29T08:18:18.320Z,2.6
2017-09-29T08:19:20.769Z,2.6
2017-09-29T08:20:23.197Z,2.7
2017-09-29T08:21:25.635Z,2.6
2017-09-29T08:22:28.068Z,2.6
2017-09-29T08:23:30.508Z,2.7
2017-09-29T08:24:32.947Z,2.7
2017-09-29T08:25:35.382Z,2.7
2017-09-29T08:26:37.823Z,2.6
2017-09-29T08:27:40.259Z,2.7
2017-09-29T08:28:42.697Z,2.6
2017-09-29T08:29:45.134Z,2.7
2017-09-29T08:30:47.567Z,2.7
2017-09-29T08:31:49.998Z,2.7
2017-09-29T08:32:52.446Z,2.7
2017-09-29T08:33:54.876Z,2.7
2017-09-29T08:34:57.320Z,2.7
2017-09-29T08:35:59.759Z,2.7
2017-09-29T08:37:02.204Z,2.7
2017-09-29T08:38:04.642Z,2.8
2017-09-29T08:39:07.079Z,2.9
2017-09-29T08:40:09.519Z,2.8
2017-09-29T08:41:11.962Z,2.9
2017-09-29T08:42:14.387Z,2.8
2017-09-29T08:43:16.839Z,2.9
2017-09-29T08:44:19.272Z,3
2017-09-29T08:45:22.053Z,2.9
2017-09-29T08:46:24.495Z,2.9
2017-09-29T08:47:26.936Z,2.9
2017-09-29T08:48:29.735Z,3
2017-09-29T08:49:32.180Z,3.1
2017-09-29T08:50:34.618Z,3
2017-09-29T08:51:37.062Z,3.1
2017-09-29T08:52:39.505Z,3.1
2017-09-29T08:53:41.946Z,3.1
2017-09-29T08:54:44.393Z,3.2
2017-09-29T08:55:47.186Z,3.2
2017-09-29T08:56:49.970Z,3.2
2017-09-29T08:57:52.420Z,3.1
2017-09-29T08:58:54.850Z,3.1
2017-09-29T08:59:57.309Z,3.2
2017-09-29T09:00:59.741Z,3.2
2017-09-29T09:02:02.185Z,3.2
2017-09-29T09:03:04.624Z,3.2
2017-09-29T09:04:07.078Z,3.2
2017-09-29T09:05:09.520Z,3.3
2017-09-29T09:06:11.964Z,3.3
2017-09-29T09:07:14.413Z,3.4
2017-09-29T09:08:16.854Z,3.4
2017-09-29T09:09:19.295Z,3.6
2017-09-29T09:10:21.743Z,3.5
2017-09-29T09:11:24.188Z,3.5
2017-09-29T09:12:26.630Z,3.5
2017-09-29T09:13:29.072Z,3.6
2017-09-29T09:14:31.509Z,3.5
2017-09-29T09:15:33.955Z,3.7
2017-09-29T09:16:36.399Z,3.7
2017-09-29T09:17:38.831Z,3.7
2017-09-29T09:18:42.291Z,3.8
2017-09-29T09:19:44.742Z,3.6
2017-09-29T09:20:47.186Z,3.8
2017-09-29T09:21:49.644Z,3.7
2017-09-29T09:22:53.078Z,3.8
2017-09-29T09:23:55.533Z,4.2
2017-09-29T09:24:57.983Z,3.9
2017-09-29T09:26:00.421Z,3.9
2017-09-29T09:27:02.872Z,3.8
2017-09-29T09:28:05.312Z,4
2017-09-29T09:29:08.105Z,4.1
2017-09-29T09:30:10.556Z,4.1
2017-09-29T09:31:13.004Z,4
2017-09-29T09:32:15.446Z,4
2017-09-29T09:33:17.900Z,4
2017-09-29T09:34:20.352Z,4.1
2017-09-29T09:35:22.798Z,4
2017-09-29T09:36:25.238Z,4
2017-09-29T09:37:27.697Z,4.1
2017-09-29T09:38:30.142Z,4.2
2017-09-29T09:39:32.585Z,4.2
2017-09-29T09:40:35.032Z,4.2
2017-09-29T09:41:37.493Z,4.3
2017-09-29T09:42:39.931Z,4.3
2017-09-29T09:43:42.398Z,4.4
2017-09-29T09:44:44.857Z,4.4
2017-09-29T09:45:47.300Z,4.5
2017-09-29T09:46:49.749Z,4.5
2017-09-29T09:47:52.204Z,4.5
2017-09-29T09:48:54.642Z,4.6
2017-09-29T09:49:57.094Z,4.4
2017-09-29T09:50:59.536Z,4.5
2017-09-29T09:52:01.981Z,4.6
2017-09-29T09:53:04.773Z,4.5
2017-09-29T09:54:07.215Z,4.5
2017-09-29T09:55:09.659Z,4.5
2017-09-29T09:56:12.116Z,4.6
2017-09-29T09:57:14.558Z,4.6
2017-09-29T09:58:17.020Z,4.6
2017-09-29T09:59:19.459Z,4.6
2017-09-29T10:00:21.905Z,4.6
2017-09-29T10:01:24.359Z,4.6
2017-09-29T10:02:26.813Z,4.7
2017-09-29T10:03:29.600Z,4.6
2017-09-29T10:04:32.048Z,4.7
2017-09-29T10:05:34.500Z,4.7
2017-09-29T10:06:36.946Z,4.7
2017-09-29T10:07:39.389Z,4.6
2017-09-29T10:08:41.844Z,4.6
2017-09-29T10:09:44.298Z,4.7
2017-09-29T10:10:46.743Z,4.7
2017-09-29T10:11:49.205Z,4.7
2017-09-29T10:12:51.644Z,4.6
2017-09-29T10:13:54.424Z,4.7
2017-09-29T10:14:56.882Z,4.8
2017-09-29T10:15:59.320Z,4.6
2017-09-29T10:17:01.768Z,4.7
2017-09-29T10:18:04.213Z,4.8
2017-09-29T10:19:06.646Z,4.8
2017-09-29T10:20:09.109Z,4.7
2017-09-29T10:21:11.560Z,4.8
2017-09-29T10:22:13.995Z,4.9
2017-09-29T10:23:16.452Z,4.8
2017-09-29T10:24:18.900Z,4.8
2017-09-29T10:25:21.347Z,4.8
2017-09-29T10:26:24.139Z,4.8
2017-09-29T10:27:26.583Z,4.8
2017-09-29T10:28:29.030Z,4.8
2017-09-29T10:29:31.496Z,5
2017-09-29T10:30:33.939Z,4.9
2017-09-29T10:31:36.386Z,4.9
2017-09-29T10:32:38.833Z,5.1
2017-09-29T10:33:41.288Z,5
2017-09-29T10:34:44.088Z,4.8
2017-09-29T10:35:46.539Z,5.4
2017-09-29T10:36:48.993Z,5
2017-09-29T10:37:51.449Z,4.8
2017-09-29T10:38:53.892Z,5
2017-09-29T10:39:56.346Z,5
2017-09-29T10:40:58.792Z,4.9
2017-09-29T10:42:01.245Z,5
2017-09-29T10:43:03.699Z,5
2017-09-29T10:44:06.147Z,5
2017-09-29T10:45:08.590Z,4.9
2017-09-29T10:46:11.045Z,5
2017-09-29T10:47:13.497Z,4.8
2017-09-29T10:48:15.946Z,5
2017-09-29T10:49:18.390Z,5
2017-09-29T10:50:21.179Z,4.9
2017-09-29T10:51:23.630Z,5.3
2017-09-29T10:52:26.089Z,5.2
2017-09-29T10:53:28.869Z,4.8
2017-09-29T10:54:31.322Z,4.9
2017-09-29T10:55:33.779Z,4.9
2017-09-29T10:56:36.227Z,4.8
2017-09-29T10:57:39.028Z,4.8
2017-09-29T10:58:41.471Z,5.1
2017-09-29T10:59:44.268Z,5
2017-09-29T11:00:46.724Z,4.9
2017-09-29T11:01:49.180Z,5
2017-09-29T11:02:51.627Z,5
2017-09-29T11:03:54.078Z,5
2017-09-29T11:04:56.530Z,4.9
2017-09-29T11:05:58.987Z,5
2017-09-29T11:07:01.432Z,4.8
2017-09-29T11:08:03.883Z,5.1
2017-09-29T11:09:06.339Z,5
2017-09-29T11:10:08.786Z,5
2017-09-29T11:11:11.231Z,4.9
2017-09-29T11:12:13.676Z,5.1
2017-09-29T11:13:16.127Z,5
2017-09-29T11:14:18.579Z,4.9
2017-09-29T11:15:21.037Z,5
2017-09-29T11:16:23.497Z,5.1
2017-09-29T11:17:25.942Z,5
2017-09-29T11:18:28.392Z,4.9
2017-09-29T11:19:30.844Z,5.1
2017-09-29T11:20:33.287Z,5.1
2017-09-29T11:21:35.791Z,5
2017-09-29T11:22:38.262Z,5
2017-09-29T11:23:40.723Z,4.9
2017-09-29T11:24:43.189Z,5
2017-09-29T11:25:45.662Z,5
2017-09-29T11:26:48.112Z,5
2017-09-29T11:27:50.568Z,5
2017-09-29T11:28:53.007Z,5.1
2017-09-29T11:29:55.461Z,5.1
2017-09-29T11:30:57.919Z,5
2017-09-29T11:32:00.368Z,5.2
2017-09-29T11:33:02.816Z,5.1
2017-09-29T11:34:05.291Z,5.5
2017-09-29T11:35:07.745Z,5.2
2017-09-29T11:36:10.896Z,5.2
2017-09-29T11:37:13.345Z,5.1
2017-09-29T11:38:15.805Z,5.2
2017-09-29T11:39:18.250Z,5.2
2017-09-29T11:40:20.700Z,5.2
2017-09-29T11:41:23.145Z,5.2
2017-09-29T11:42:25.597Z,5.2
2017-09-29T11:43:28.049Z,5.2
2017-09-29T11:44:30.850Z,5.1
2017-09-29T11:46:38.442Z,5.2
2017-09-29T11:47:41.243Z,5.2
2017-09-29T11:48:43.699Z,5.3
2017-09-29T11:49:46.153Z,5.2
2017-09-29T11:50:48.613Z,5.2
2017-09-29T11:51:51.065Z,5.1
2017-09-29T11:52:53.517Z,5.2
2017-09-29T11:53:55.972Z,5.3
2017-09-29T11:54:58.424Z,5.1
2017-09-29T11:56:00.865Z,5.1
2017-09-29T11:57:03.673Z,5.1
2017-09-29T11:58:06.115Z,5.3
2017-09-29T11:59:08.562Z,5.3
2017-09-29T12:00:11.350Z,5.4
2017-09-29T12:01:13.800Z,5.3
2017-09-29T12:02:16.248Z,5.4
2017-09-29T12:03:18.712Z,5.4
2017-09-29T12:04:21.503Z,5.4
2017-09-29T12:05:24.293Z,5.3
2017-09-29T12:06:26.745Z,5.4
2017-09-29T12:07:29.193Z,5.4
2017-09-29T12:08:31.648Z,5.3
2017-09-29T12:09:34.089Z,5.4
2017-09-29T12:10:36.550Z,5.5
2017-09-29T12:11:38.994Z,5.6
2017-09-29T12:12:41.456Z,5.5
2017-09-29T12:13:43.908Z,5.5
2017-09-29T12:14:46.721Z,5.4
2017-09-29T12:15:49.541Z,5.6
2017-09-29T12:16:52.004Z,5.6
2017-09-29T12:17:54.456Z,5.5
2017-09-29T12:18:56.929Z,5.6
2017-09-29T12:19:59.370Z,5.7
2017-09-29T12:21:01.826Z,5.5
2017-09-29T12:22:04.287Z,5.6
2017-09-29T12:23:06.735Z,5.7
2017-09-29T12:24:09.181Z,5.6
2017-09-29T12:25:11.631Z,5.6
2017-09-29T12:26:14.078Z,5.5
2017-09-29T12:27:16.886Z,5.6
2017-09-29T12:28:19.340Z,5.6
2017-09-29T12:29:21.784Z,5.6
2017-09-29T12:30:24.250Z,5.5
2017-09-29T12:31:26.705Z,5.4
2017-09-29T12:32:29.161Z,5.4
2017-09-29T12:33:31.611Z,5.6
2017-09-29T12:34:34.075Z,5.7
2017-09-29T12:35:36.532Z,5.4
2017-09-29T12:36:38.973Z,5.4
2017-09-29T12:37:41.429Z,5.6
2017-09-29T12:38:43.879Z,5.6
2017-09-29T12:39:46.334Z,5.6
2017-09-29T12:40:49.161Z,5.6
2017-09-29T12:41:51.611Z,5.6
2017-09-29T12:42:54.409Z,5.7
2017-09-29T12:43:56.872Z,5.5
2017-09-29T12:44:59.325Z,5.6
2017-09-29T12:46:01.770Z,5.6
2017-09-29T12:47:04.222Z,5.5
2017-09-29T12:48:06.680Z,5.6
2017-09-29T12:49:09.132Z,5.5
2017-09-29T12:50:11.588Z,5.6
2017-09-29T12:51:14.037Z,5.7
2017-09-29T12:52:16.489Z,5.4
2017-09-29T12:53:18.947Z,5.6
2017-09-29T12:54:21.394Z,5.7
2017-09-29T12:55:23.848Z,5.7
2017-09-29T12:56:26.300Z,5.6
2017-09-29T12:57:28.755Z,5.6
2017-09-29T12:58:31.208Z,5.7
2017-09-29T12:59:33.664Z,5.7
2017-09-29T13:00:36.106Z,5.6
2017-09-29T13:01:38.559Z,5.6
2017-09-29T13:02:41.013Z,5.5
2017-09-29T13:03:43.464Z,5.4
2017-09-29T13:04:45.911Z,5.5
2017-09-29T13:05:48.362Z,5.6
2017-09-29T13:06:50.811Z,5.6
2017-09-29T13:07:53.269Z,5.5
2017-09-29T13:08:55.721Z,5.6
2017-09-29T13:09:58.165Z,5.4
2017-09-29T13:11:00.617Z,5.6
2017-09-29T13:12:03.069Z,5.5
2017-09-29T13:13:05.571Z,5.5
2017-09-29T13:14:07.966Z,5.4
2017-09-29T13:15:10.411Z,5.6
2017-09-29T13:16:12.856Z,5.5
2017-09-29T13:17:15.319Z,5.4
2017-09-29T13:18:17.753Z,5.4
2017-09-29T13:19:20.212Z,5.5
2017-09-29T13:20:22.996Z,5.4
2017-09-29T13:21:25.459Z,5.4
2017-09-29T13:22:27.903Z,5.5
2017-09-29T13:23:30.356Z,5.5
2017-09-29T13:24:32.809Z,5.4
2017-09-29T13:25:35.265Z,5.4
2017-09-29T13:26:37.710Z,5.4
2017-09-29T13:27:40.165Z,5.4
2017-09-29T13:28:42.618Z,5.4
2017-09-29T13:29:45.067Z,5.4
2017-09-29T13:30:47.516Z,5.4
2017-09-29T13:31:49.967Z,5.4
2017-09-29T13:32:52.417Z,5.5
2017-09-29T13:33:54.869Z,5.4
2017-09-29T13:34:57.317Z,5.5
2017-09-29T13:35:59.774Z,5.2
2017-09-29T13:37:02.591Z,5.4
2017-09-29T13:38:05.043Z,5.3
2017-09-29T13:39:07.507Z,5.3
2017-09-29T13:40:09.959Z,5.2
2017-09-29T13:41:12.409Z,5.3
2017-09-29T13:42:14.870Z,5.4
2017-09-29T13:43:17.318Z,5.3
2017-09-29T13:44:19.774Z,5.3
2017-09-29T13:45:22.902Z,5.2
2017-09-29T13:46:25.350Z,5.2
2017-09-29T13:47:27.802Z,5.3
2017-09-29T13:48:30.253Z,5.4
2017-09-29T13:49:33.386Z,5.2
2017-09-29T13:50:35.839Z,5.2
2017-09-29T13:51:38.295Z,5.3
2017-09-29T13:52:40.738Z,5.1
2017-09-29T13:53:43.196Z,5.2
2017-09-29T13:54:45.652Z,5.2
2017-09-29T13:55:48.104Z,5.2
2017-09-29T13:56:50.557Z,5.2
2017-09-29T13:57:53.350Z,5.2
2017-09-29T13:58:55.798Z,5.2
2017-09-29T13:59:58.254Z,5.2
2017-09-29T14:01:00.704Z,5.2
2017-09-29T14:02:03.146Z,5.2
2017-09-29T14:03:06.305Z,5.1
2017-09-29T14:04:08.788Z,5.1
2017-09-29T14:05:11.234Z,5.1
2017-09-29T14:06:13.683Z,5.3
2017-09-29T14:07:16.145Z,5.2
2017-09-29T14:08:18.598Z,5
2017-09-29T14:09:21.208Z,5.2
2017-09-29T14:10:23.651Z,5
2017-09-29T14:11:26.104Z,5.2
2017-09-29T14:12:28.572Z,5.2
2017-09-29T14:13:31.062Z,5.1
2017-09-29T14:14:33.520Z,5.1
2017-09-29T14:15:35.980Z,5.2
2017-09-29T14:16:38.476Z,5.1
2017-09-29T14:17:40.960Z,5.1
2017-09-29T14:18:43.443Z,5
2017-09-29T14:19:45.902Z,5.1
2017-09-29T14:20:48.370Z,5
2017-09-29T14:21:50.821Z,5.2
2017-09-29T14:22:53.625Z,5.1
2017-09-29T14:23:56.071Z,4.9
2017-09-29T14:24:58.589Z,5.1